createdAt,value
2023-01-04T00:00:00.344Z,84.8
2023-01-04T00:01:00.683Z,84.7
2023-01-04T00:02:00.669Z,84.6
2023-01-04T00:03:00.898Z,84.5
2023-01-04T00:04:01.110Z,84.6
2023-01-04T00:05:01.073Z,84.5
2023-01-04T00:06:01.213Z,84.4
2023-01-04T00:07:00.371Z,84.4
2023-01-04T00:08:00.509Z,84.4
2023-01-04T00:09:00.663Z,84.4
2023-01-04T00:10:00.842Z,84.5
2023-01-04T00:11:00.948Z,84.5
2023-01-04T00:12:01.100Z,84.6
2023-01-04T00:13:01.245Z,84.7
2023-01-04T00:14:00.400Z,84.8
2023-01-04T00:15:00.567Z,84.7
2023-01-04T00:16:07.359Z,84.7
2023-01-04T00:17:00.850Z,84.8
2023-01-04T00:18:00.979Z,84.8
2023-01-04T00:19:01.138Z,84.8
2023-01-04T00:20:00.287Z,84.7
2023-01-04T00:21:00.441Z,84.7
2023-01-04T00:22:00.580Z,84.7
2023-01-04T00:23:00.724Z,84.7
2023-01-04T00:24:00.882Z,84.7
2023-01-04T00:25:01.008Z,84.8
2023-01-04T00:26:01.153Z,84.8
2023-01-04T00:27:00.309Z,84.8
2023-01-04T00:28:00.445Z,84.9
2023-01-04T00:29:00.619Z,84.9
2023-01-04T00:30:00.737Z,84.9
2023-01-04T00:31:00.906Z,84.9
2023-01-04T00:32:01.063Z,84.8
2023-01-04T00:33:01.189Z,84.7
2023-01-04T00:34:00.348Z,84.5
2023-01-04T00:35:00.473Z,84.5
2023-01-04T00:36:00.627Z,84.5
2023-01-04T00:37:00.781Z,84.4
2023-01-04T00:38:00.905Z,84.4
2023-01-04T00:39:01.069Z,84.4
2023-01-04T00:40:01.212Z,84.3
2023-01-04T00:41:00.375Z,84.3
2023-01-04T00:42:01.526Z,84.3
2023-01-04T00:43:00.664Z,84.3
2023-01-04T00:44:00.810Z,84.4
2023-01-04T00:45:00.967Z,84.4
2023-01-04T00:46:01.150Z,84.5
2023-01-04T00:47:01.292Z,84.4
2023-01-04T00:48:00.399Z,84.4
2023-01-04T00:49:01.103Z,84.3
2023-01-04T00:50:00.700Z,84.3
2023-01-04T00:51:00.855Z,84.4
2023-01-04T00:52:01.034Z,84.4
2023-01-04T00:53:01.184Z,84.3
2023-01-04T00:54:00.305Z,84.3
2023-01-04T00:55:00.446Z,84.2
2023-01-04T00:56:00.607Z,84.3
2023-01-04T00:57:00.739Z,84.4
2023-01-04T00:58:00.927Z,84.3
2023-01-04T00:59:01.060Z,84.3
2023-01-04T01:00:01.205Z,84.3
2023-01-04T01:01:00.331Z,84.3
2023-01-04T01:02:00.683Z,84.3
2023-01-04T01:03:00.902Z,84.3
2023-01-04T01:04:00.889Z,84.4
2023-01-04T01:05:00.924Z,84.4
2023-01-04T01:06:01.075Z,84.6
2023-01-04T01:07:01.228Z,84.7
2023-01-04T01:08:00.385Z,84.8
2023-01-04T01:09:00.516Z,84.9
2023-01-04T01:10:00.666Z,85
2023-01-04T01:11:00.809Z,85
2023-01-04T01:12:00.951Z,85
2023-01-04T01:13:01.156Z,84.9
2023-01-04T01:14:01.269Z,84.9
2023-01-04T01:15:00.798Z,84.9
2023-01-04T01:16:00.648Z,84.8
2023-01-04T01:17:00.748Z,84.7
2023-01-04T01:18:00.852Z,84.6
2023-01-04T01:19:00.988Z,84.5
2023-01-04T01:20:01.131Z,84.5
2023-01-04T01:21:00.296Z,84.5
2023-01-04T01:22:00.442Z,84.6
2023-01-04T01:23:00.577Z,84.6
2023-01-04T01:24:00.718Z,84.5
2023-01-04T01:25:00.913Z,84.5
2023-01-04T01:26:01.042Z,84.4
2023-01-04T01:27:01.174Z,84.3
2023-01-04T01:28:00.312Z,84.3
2023-01-04T01:29:00.449Z,84.3
2023-01-04T01:30:00.616Z,84.1
2023-01-04T01:31:05.147Z,84
2023-01-04T01:32:01.091Z,84
2023-01-04T01:33:01.034Z,84
2023-01-04T01:34:01.190Z,84
2023-01-04T01:35:00.345Z,84
2023-01-04T01:36:00.492Z,84.1
2023-01-04T01:37:00.623Z,84.1
2023-01-04T01:38:00.763Z,84.1
2023-01-04T01:39:00.923Z,84.2
2023-01-04T01:40:01.075Z,84.2
2023-01-04T01:41:01.236Z,84.1
2023-01-04T01:42:00.374Z,84.2
2023-01-04T01:43:00.528Z,84.3
2023-01-04T01:44:00.671Z,84.2
2023-01-04T01:45:00.813Z,84.3
2023-01-04T01:46:01.033Z,84.2
2023-01-04T01:47:01.246Z,84.3
2023-01-04T01:48:01.227Z,84.3
2023-01-04T01:49:00.388Z,84.3
2023-01-04T01:50:00.551Z,84.2
2023-01-04T01:51:00.677Z,84.2
2023-01-04T01:52:00.829Z,84.2
2023-01-04T01:53:00.973Z,84.2
2023-01-04T01:54:01.147Z,84.2
2023-01-04T01:55:00.266Z,84.1
2023-01-04T01:56:00.417Z,84.1
2023-01-04T01:57:00.570Z,84.1
2023-01-04T01:58:00.718Z,84.1
2023-01-04T01:59:00.879Z,84.1
2023-01-04T02:00:01.013Z,84.1
2023-01-04T02:01:01.166Z,84.1
2023-01-04T02:02:00.430Z,84.1
2023-01-04T02:03:00.586Z,84.1
2023-01-04T02:04:00.726Z,84
2023-01-04T02:05:00.775Z,84
2023-01-04T02:06:00.916Z,84
2023-01-04T02:07:01.050Z,83.9
2023-01-04T02:08:01.197Z,83.9
2023-01-04T02:09:00.351Z,84
2023-01-04T02:10:00.497Z,84.1
2023-01-04T02:11:00.661Z,84
2023-01-04T02:12:00.796Z,83.9
2023-01-04T02:13:00.945Z,84
2023-01-04T02:14:01.082Z,84
2023-01-04T02:15:01.235Z,84.1
2023-01-04T02:16:00.436Z,84.1
2023-01-04T02:17:00.550Z,84.1
2023-01-04T02:18:00.692Z,84.1
2023-01-04T02:19:00.828Z,84.1
2023-01-04T02:20:00.980Z,84.1
2023-01-04T02:21:01.122Z,84.1
2023-01-04T02:22:00.312Z,84.1
2023-01-04T02:23:00.396Z,84
2023-01-04T02:24:00.550Z,84
2023-01-04T02:25:00.738Z,84
2023-01-04T02:26:00.853Z,84
2023-01-04T02:27:01.031Z,84
2023-01-04T02:28:01.146Z,83.8
2023-01-04T02:29:00.305Z,83.5
2023-01-04T02:30:00.444Z,83.5
2023-01-04T02:31:00.655Z,83.5
2023-01-04T02:32:00.762Z,83.5
2023-01-04T02:33:00.875Z,83.5
2023-01-04T02:34:01.034Z,83.6
2023-01-04T02:35:01.177Z,83.7
2023-01-04T02:36:00.324Z,83.7
2023-01-04T02:37:00.486Z,83.6
2023-01-04T02:38:00.632Z,83.6
2023-01-04T02:39:00.777Z,83.6
2023-01-04T02:40:00.926Z,83.6
2023-01-04T02:41:01.078Z,83.7
2023-01-04T02:42:01.228Z,83.9
2023-01-04T02:43:00.394Z,83.9
2023-01-04T02:44:00.510Z,83.9
2023-01-04T02:45:00.653Z,84
2023-01-04T02:46:00.807Z,84
2023-01-04T02:47:01.024Z,84
2023-01-04T02:48:01.132Z,84.2
2023-01-04T02:49:01.258Z,84.2
2023-01-04T02:50:04.596Z,84.1
2023-01-04T02:51:00.555Z,84
2023-01-04T02:52:00.703Z,84
2023-01-04T02:53:00.861Z,83.9
2023-01-04T02:54:01.022Z,83.8
2023-01-04T02:55:01.170Z,83.7
2023-01-04T02:56:00.355Z,83.7
2023-01-04T02:57:05.237Z,83.7
2023-01-04T02:58:00.601Z,83.7
2023-01-04T02:59:00.741Z,83.9
2023-01-04T03:00:00.886Z,83.8
2023-01-04T03:01:01.038Z,83.8
2023-01-04T03:02:01.315Z,83.8
2023-01-04T03:03:00.432Z,83.9
2023-01-04T03:04:00.620Z,83.7
2023-01-04T03:05:00.627Z,83.6
2023-01-04T03:06:00.781Z,83.6
2023-01-04T03:07:00.949Z,83.6
2023-01-04T03:08:01.062Z,83.5
2023-01-04T03:09:01.211Z,83.5
2023-01-04T03:10:00.354Z,83.7
2023-01-04T03:11:00.502Z,83.8
2023-01-04T03:12:00.659Z,83.7
2023-01-04T03:13:00.822Z,83.7
2023-01-04T03:14:00.946Z,83.6
2023-01-04T03:15:01.090Z,83.5
2023-01-04T03:16:01.266Z,83.5
2023-01-04T03:17:00.389Z,83.7
2023-01-04T03:18:00.544Z,83.8
2023-01-04T03:19:00.678Z,83.8
2023-01-04T03:20:00.830Z,83.8
2023-01-04T03:21:01.005Z,83.9
2023-01-04T03:22:01.136Z,83.9
2023-01-04T03:23:00.315Z,83.9
2023-01-04T03:24:00.467Z,83.9
2023-01-04T03:25:00.602Z,84
2023-01-04T03:26:00.760Z,84.1
2023-01-04T03:27:00.918Z,84.1
2023-01-04T03:28:01.070Z,84.2
2023-01-04T03:29:01.196Z,84.2
2023-01-04T03:30:00.347Z,84.3
2023-01-04T03:31:00.555Z,84.3
2023-01-04T03:32:00.656Z,84.1
2023-01-04T03:33:00.806Z,84.1
2023-01-04T03:34:00.956Z,84.2
2023-01-04T03:35:01.085Z,84.2
2023-01-04T03:36:01.234Z,84.2
2023-01-04T03:37:00.374Z,84.1
2023-01-04T03:38:00.519Z,84
2023-01-04T03:39:00.687Z,83.9
2023-01-04T03:40:00.834Z,83.8
2023-01-04T03:41:00.983Z,83.9
2023-01-04T03:42:01.135Z,83.9
2023-01-04T03:43:00.275Z,84
2023-01-04T03:44:00.451Z,84
2023-01-04T03:45:05.911Z,84.1
2023-01-04T03:46:00.725Z,84.1
2023-01-04T03:47:00.955Z,83.9
2023-01-04T03:48:01.027Z,83.9
2023-01-04T03:49:01.184Z,84
2023-01-04T03:50:00.319Z,84.1
2023-01-04T03:51:00.470Z,84
2023-01-04T03:52:00.618Z,84
2023-01-04T03:53:00.767Z,84
2023-01-04T03:54:00.940Z,83.9
2023-01-04T03:55:01.069Z,83.7
2023-01-04T03:56:01.217Z,83.6
2023-01-04T03:57:00.370Z,83.5
2023-01-04T03:58:00.499Z,83.5
2023-01-04T03:59:00.654Z,83.5
2023-01-04T04:00:00.818Z,83.5
2023-01-04T04:01:01.025Z,83.6
2023-01-04T04:02:01.161Z,83.5
2023-01-04T04:03:01.239Z,83.7
2023-01-04T04:04:00.441Z,83.6
2023-01-04T04:05:00.554Z,83.6
2023-01-04T04:06:00.706Z,83.6
2023-01-04T04:07:00.852Z,83.7
2023-01-04T04:08:00.991Z,83.9
2023-01-04T04:09:01.127Z,84.1
2023-01-04T04:10:00.280Z,84.1
2023-01-04T04:11:00.434Z,84.1
2023-01-04T04:12:00.588Z,84.2
2023-01-04T04:13:00.749Z,84.2
2023-01-04T04:14:00.881Z,84
2023-01-04T04:15:01.033Z,84
2023-01-04T04:16:01.228Z,84
2023-01-04T04:17:00.404Z,84.2
2023-01-04T04:18:00.486Z,84.1
2023-01-04T04:19:06.417Z,84
2023-01-04T04:20:00.805Z,84
2023-01-04T04:21:00.978Z,84.1
2023-01-04T04:22:01.112Z,84.1
2023-01-04T04:23:01.239Z,84.1
2023-01-04T04:24:00.402Z,84
2023-01-04T04:25:00.579Z,84.1
2023-01-04T04:26:00.732Z,84.2
2023-01-04T04:27:00.906Z,84.2
2023-01-04T04:28:01.027Z,84.6
2023-01-04T04:29:01.177Z,84.6
2023-01-04T04:30:00.344Z,84.4
2023-01-04T04:31:00.467Z,84.3
2023-01-04T04:32:00.681Z,84.1
2023-01-04T04:33:00.782Z,84
2023-01-04T04:34:00.900Z,84
2023-01-04T04:35:01.084Z,83.9
2023-01-04T04:36:01.203Z,83.8
2023-01-04T04:37:00.391Z,83.7
2023-01-04T04:38:00.503Z,83.7
2023-01-04T04:39:00.687Z,83.7
2023-01-04T04:40:00.790Z,83.7
2023-01-04T04:41:00.941Z,83.7
2023-01-04T04:42:01.102Z,83.6
2023-01-04T04:43:01.231Z,83.4
2023-01-04T04:44:00.395Z,83.3
2023-01-04T04:45:00.524Z,83.2
2023-01-04T04:46:00.705Z,83.3
2023-01-04T04:47:00.844Z,83.3
2023-01-04T04:48:00.983Z,83.2
2023-01-04T04:49:01.125Z,83.1
2023-01-04T04:50:00.262Z,83.1
2023-01-04T04:51:00.416Z,83.1
2023-01-04T04:52:00.579Z,83
2023-01-04T04:53:00.724Z,83
2023-01-04T04:54:00.855Z,82.8
2023-01-04T04:55:01.002Z,82.8
2023-01-04T04:56:01.144Z,82.7
2023-01-04T04:57:00.307Z,82.5
2023-01-04T04:58:00.483Z,82.6
2023-01-04T04:59:00.600Z,82.5
2023-01-04T05:00:00.748Z,82.5
2023-01-04T05:01:00.953Z,82.5
2023-01-04T05:02:01.288Z,82.4
2023-01-04T05:03:01.389Z,82.5
2023-01-04T05:04:00.326Z,82.6
2023-01-04T05:05:00.481Z,82.6
2023-01-04T05:06:00.643Z,82.3
2023-01-04T05:07:00.756Z,82.3
2023-01-04T05:08:00.949Z,82.3
2023-01-04T05:09:01.068Z,82.3
2023-01-04T05:10:01.212Z,82.2
2023-01-04T05:11:00.363Z,82.2
2023-01-04T05:12:00.498Z,82.1
2023-01-04T05:13:00.670Z,82.1
2023-01-04T05:14:00.823Z,82
2023-01-04T05:15:00.960Z,81.9
2023-01-04T05:16:01.161Z,81.8
2023-01-04T05:17:01.792Z,81.8
2023-01-04T05:18:00.421Z,81.8
2023-01-04T05:19:00.587Z,81.8
2023-01-04T05:20:00.760Z,81.7
2023-01-04T05:21:00.893Z,81.9
2023-01-04T05:22:01.038Z,81.8
2023-01-04T05:23:01.177Z,81.9
2023-01-04T05:24:00.348Z,81.9
2023-01-04T05:25:00.487Z,81.8
2023-01-04T05:26:00.624Z,81.8
2023-01-04T05:27:00.788Z,81.9
2023-01-04T05:28:00.940Z,81.9
2023-01-04T05:29:01.092Z,81.8
2023-01-04T05:30:01.318Z,81.6
2023-01-04T05:31:00.401Z,81.7
2023-01-04T05:32:00.598Z,81.6
2023-01-04T05:33:00.686Z,81.5
2023-01-04T05:34:00.846Z,81.4
2023-01-04T05:35:01.010Z,81.5
2023-01-04T05:36:01.138Z,81.5
2023-01-04T05:37:00.277Z,81.5
2023-01-04T05:38:00.445Z,81.4
2023-01-04T05:39:00.632Z,81.4
2023-01-04T05:40:00.755Z,81.3
2023-01-04T05:41:00.901Z,81.4
2023-01-04T05:42:01.058Z,81.2
2023-01-04T05:43:01.190Z,81.1
2023-01-04T05:44:00.354Z,81
2023-01-04T05:45:00.498Z,81
2023-01-04T05:46:00.716Z,81
2023-01-04T05:47:00.775Z,80.9
2023-01-04T05:48:00.935Z,80.8
2023-01-04T05:49:01.098Z,80.7
2023-01-04T05:50:01.212Z,80.5
2023-01-04T05:51:00.368Z,80.5
2023-01-04T05:52:00.527Z,80.4
2023-01-04T05:53:00.694Z,80.4
2023-01-04T05:54:00.834Z,80.2
2023-01-04T05:55:00.993Z,80.1
2023-01-04T05:56:01.147Z,79.9
2023-01-04T05:57:00.261Z,80.1
2023-01-04T05:58:00.425Z,80.3
2023-01-04T05:59:00.560Z,80.2
2023-01-04T06:00:00.734Z,80.2
2023-01-04T06:01:00.888Z,80.4
2023-01-04T06:02:01.154Z,80.4
2023-01-04T06:03:01.457Z,80.2
2023-01-04T06:04:00.349Z,80.2
2023-01-04T06:05:00.465Z,80.2
2023-01-04T06:06:00.596Z,80.2
2023-01-04T06:07:00.759Z,80.2
2023-01-04T06:08:00.916Z,80.3
2023-01-04T06:09:01.083Z,80.2
2023-01-04T06:10:01.226Z,80.3
2023-01-04T06:11:00.351Z,80.2
2023-01-04T06:12:00.515Z,80
2023-01-04T06:13:00.648Z,80.1
2023-01-04T06:14:00.831Z,80
2023-01-04T06:15:00.954Z,80.1
2023-01-04T06:16:01.146Z,80.4
2023-01-04T06:17:01.330Z,80.2
2023-01-04T06:18:00.398Z,80.1
2023-01-04T06:19:00.553Z,80
2023-01-04T06:20:00.694Z,80.2
2023-01-04T06:21:00.864Z,80.2
2023-01-04T06:22:00.992Z,80.1
2023-01-04T06:23:01.147Z,80
2023-01-04T06:24:00.301Z,80.1
2023-01-04T06:25:00.466Z,80.4
2023-01-04T06:26:00.630Z,80.3
2023-01-04T06:27:00.759Z,80.3
2023-01-04T06:28:00.915Z,80
2023-01-04T06:29:01.052Z,79.8
2023-01-04T06:30:01.203Z,80
2023-01-04T06:31:00.407Z,80
2023-01-04T06:32:00.500Z,80.1
2023-01-04T06:33:00.624Z,79.7
2023-01-04T06:34:00.779Z,79.9
2023-01-04T06:35:00.916Z,79.9
2023-01-04T06:36:01.062Z,79.8
2023-01-04T06:37:01.275Z,79.6
2023-01-04T06:38:00.366Z,79.4
2023-01-04T06:39:00.507Z,79.6
2023-01-04T06:40:00.642Z,79.6
2023-01-04T06:41:00.815Z,79.5
2023-01-04T06:42:06.256Z,79.5
2023-01-04T06:43:01.074Z,79.6
2023-01-04T06:44:01.228Z,79.9
2023-01-04T06:45:00.394Z,79.5
2023-01-04T06:46:00.631Z,79.7
2023-01-04T06:47:00.702Z,80
2023-01-04T06:48:05.796Z,80
2023-01-04T06:49:00.984Z,79.8
2023-01-04T06:50:01.148Z,80.1
2023-01-04T06:51:00.279Z,80.1
2023-01-04T06:52:00.419Z,79.9
2023-01-04T06:53:00.584Z,80.1
2023-01-04T06:54:00.719Z,79.9
2023-01-04T06:55:00.861Z,79.6
2023-01-04T06:56:01.015Z,79.4
2023-01-04T06:57:01.152Z,79.4
2023-01-04T06:58:00.310Z,79.3
2023-01-04T06:59:00.470Z,79.5
2023-01-04T07:00:00.619Z,79.3
2023-01-04T07:01:00.777Z,79.8
2023-01-04T07:02:00.945Z,79.6
2023-01-04T07:03:14.599Z,79.4
2023-01-04T07:04:01.304Z,79.5
2023-01-04T07:05:00.448Z,79.2
2023-01-04T07:06:00.547Z,79.3
2023-01-04T07:07:00.664Z,79.4
2023-01-04T07:08:07.444Z,79.4
2023-01-04T07:09:01.006Z,79.3
2023-01-04T07:10:05.437Z,79.5
2023-01-04T07:11:01.279Z,79.5
2023-01-04T07:12:00.409Z,79.6
2023-01-04T07:13:00.556Z,79.8
2023-01-04T07:14:00.705Z,79.5
2023-01-04T07:15:00.874Z,79.6
2023-01-04T07:16:01.255Z,79.5
2023-01-04T07:17:01.161Z,79.5
2023-01-04T07:18:00.306Z,79.4
2023-01-04T07:19:00.455Z,79.7
2023-01-04T07:20:00.597Z,79.7
2023-01-04T07:21:00.761Z,79.6
2023-01-04T07:22:00.890Z,79.7
2023-01-04T07:23:01.049Z,79.8
2023-01-04T07:24:01.192Z,79.4
2023-01-04T07:25:00.351Z,79.3
2023-01-04T07:26:00.495Z,79.5
2023-01-04T07:27:00.635Z,79.3
2023-01-04T07:28:00.792Z,79
2023-01-04T07:29:00.941Z,79.2
2023-01-04T07:30:01.100Z,79.5
2023-01-04T07:31:01.318Z,79.7
2023-01-04T07:32:00.375Z,79.6
2023-01-04T07:33:00.563Z,79.4
2023-01-04T07:34:00.665Z,79.1
2023-01-04T07:35:00.836Z,79.3
2023-01-04T07:36:00.967Z,79
2023-01-04T07:37:01.122Z,78.6
2023-01-04T07:38:00.301Z,79
2023-01-04T07:39:00.412Z,78.3
2023-01-04T07:40:00.583Z,78.3
2023-01-04T07:41:00.732Z,78.4
2023-01-04T07:42:00.855Z,78.5
2023-01-04T07:43:01.014Z,78.4
2023-01-04T07:44:01.152Z,78.7
2023-01-04T07:45:00.310Z,78.8
2023-01-04T07:46:00.524Z,78.9
2023-01-04T07:47:00.597Z,79.1
2023-01-04T07:48:00.765Z,79
2023-01-04T07:49:00.901Z,79.2
2023-01-04T07:50:01.022Z,79
2023-01-04T07:51:01.176Z,78.9
2023-01-04T07:52:00.326Z,79.2
2023-01-04T07:53:00.480Z,79.1
2023-01-04T07:54:00.634Z,78.6
2023-01-04T07:55:00.788Z,78.6
2023-01-04T07:56:00.916Z,78.9
2023-01-04T07:57:01.097Z,78.6
2023-01-04T07:58:01.224Z,78.6
2023-01-04T07:59:00.360Z,78.5
2023-01-04T08:00:00.508Z,78.7
2023-01-04T08:01:00.656Z,78.9
2023-01-04T08:02:00.963Z,79.1
2023-01-04T08:03:01.013Z,78.9
2023-01-04T08:04:01.116Z,79.4
2023-01-04T08:05:01.371Z,79.4
2023-01-04T08:06:00.390Z,79.5
2023-01-04T08:07:00.552Z,79.7
2023-01-04T08:08:00.714Z,79.8
2023-01-04T08:09:00.868Z,79.4
2023-01-04T08:10:01.052Z,79.2
2023-01-04T08:11:01.134Z,79.2
2023-01-04T08:12:00.295Z,79.5
2023-01-04T08:13:00.457Z,79.4
2023-01-04T08:14:00.580Z,79.3
2023-01-04T08:15:00.735Z,78.9
2023-01-04T08:16:00.964Z,79.2
2023-01-04T08:17:01.026Z,78.6
2023-01-04T08:18:01.205Z,79.2
2023-01-04T08:19:00.307Z,79.4
2023-01-04T08:20:00.489Z,79.2
2023-01-04T08:21:00.611Z,79.4
2023-01-04T08:22:00.767Z,79.8
2023-01-04T08:23:00.920Z,80.1
2023-01-04T08:24:01.069Z,80.4
2023-01-04T08:25:01.226Z,80.1
2023-01-04T08:26:00.342Z,79.8
2023-01-04T08:27:00.501Z,80.4
2023-01-04T08:28:00.628Z,80.1
2023-01-04T08:29:00.783Z,79.7
2023-01-04T08:30:00.947Z,79.6
2023-01-04T08:31:01.148Z,79.6
2023-01-04T08:32:01.235Z,79.2
2023-01-04T08:33:00.373Z,79
2023-01-04T08:34:00.524Z,79.1
2023-01-04T08:35:00.679Z,79.2
2023-01-04T08:36:00.828Z,78.5
2023-01-04T08:37:00.981Z,79.1
2023-01-04T08:38:28.517Z,79.1
2023-01-04T08:39:01.891Z,78.7
2023-01-04T08:40:00.385Z,77.8
2023-01-04T08:41:16.656Z,78.1
2023-01-04T08:42:09.976Z,78.5
2023-01-04T08:43:00.850Z,78.8
2023-01-04T08:44:01.005Z,78.5
2023-01-04T08:45:01.737Z,78.6
2023-01-04T08:46:00.403Z,77.9
2023-01-04T08:47:00.502Z,78.3
2023-01-04T08:48:00.602Z,77.9
2023-01-04T08:49:00.757Z,77.9
2023-01-04T08:50:06.472Z,77.6
2023-01-04T08:51:01.030Z,78.2
2023-01-04T08:52:01.191Z,78.3
2023-01-04T08:53:00.330Z,77.9
2023-01-04T08:54:00.517Z,77.8
2023-01-04T08:55:00.607Z,77.9
2023-01-04T08:56:00.769Z,77.3
2023-01-04T08:57:00.911Z,77.3
2023-01-04T08:58:01.062Z,77.6
2023-01-04T08:59:01.240Z,77.6
2023-01-04T09:00:00.355Z,77.6
2023-01-04T09:01:00.498Z,77.1
2023-01-04T09:02:05.336Z,76.9
2023-01-04T09:03:01.063Z,76.7
2023-01-04T09:04:01.042Z,76.2
2023-01-04T09:05:01.181Z,76.8
2023-01-04T09:06:01.249Z,76.5
2023-01-04T09:07:00.388Z,77
2023-01-04T09:08:00.521Z,76.2
2023-01-04T09:09:00.679Z,76.2
2023-01-04T09:10:01.078Z,76.6
2023-01-04T09:11:00.967Z,76.2
2023-01-04T09:12:01.117Z,75.8
2023-01-04T09:13:00.262Z,75.7
2023-01-04T09:14:07.324Z,75.5
2023-01-04T09:15:00.591Z,75.7
2023-01-04T09:16:00.799Z,75.6
2023-01-04T09:17:00.859Z,76.2
2023-01-04T09:18:31.199Z,76.1
2023-01-04T09:19:01.173Z,76.2
2023-01-04T09:20:00.299Z,76.3
2023-01-04T09:21:00.473Z,76.5
2023-01-04T09:22:00.788Z,76.5
2023-01-04T09:23:00.762Z,76.6
2023-01-04T09:24:00.920Z,76.3
2023-01-04T09:25:01.072Z,76.8
2023-01-04T09:26:05.630Z,76.6
2023-01-04T09:27:00.367Z,76.4
2023-01-04T09:28:00.511Z,76.2
2023-01-04T09:29:00.671Z,76.7
2023-01-04T09:30:00.817Z,76.3
2023-01-04T09:31:01.021Z,76.6
2023-01-04T09:32:01.301Z,76.5
2023-01-04T09:33:01.275Z,76.2
2023-01-04T09:34:17.494Z,76.3
2023-01-04T09:35:00.557Z,76.7
2023-01-04T09:36:00.732Z,76.6
2023-01-04T09:37:00.860Z,76.4
2023-01-04T09:38:00.995Z,77
2023-01-04T09:39:01.139Z,77.2
2023-01-04T09:40:00.288Z,77.7
2023-01-04T09:41:00.461Z,78.1
2023-01-04T09:42:00.592Z,78.4
2023-01-04T09:43:21.364Z,79.1
2023-01-04T09:44:00.881Z,78.8
2023-01-04T09:45:22.972Z,78.8
2023-01-04T09:46:01.196Z,78.9
2023-01-04T09:47:00.474Z,79.2
2023-01-04T09:48:00.470Z,79.6
2023-01-04T09:49:00.638Z,80
2023-01-04T09:50:00.775Z,80.3
2023-01-04T09:51:00.972Z,80.8
2023-01-04T09:52:01.081Z,80.8
2023-01-04T09:53:01.239Z,80
2023-01-04T09:54:00.353Z,79.9
2023-01-04T09:55:04.675Z,79.3
2023-01-04T09:56:00.693Z,79.4
2023-01-04T09:57:00.834Z,79.8
2023-01-04T09:58:00.974Z,79.1
2023-01-04T09:59:01.117Z,79.9
2023-01-04T10:00:01.269Z,79.7
2023-01-04T10:01:00.568Z,79.6
2023-01-04T10:02:00.720Z,79.1
2023-01-04T10:03:00.895Z,79.6
2023-01-04T10:04:00.860Z,79.7
2023-01-04T10:05:00.998Z,79.6
2023-01-04T10:06:01.147Z,79.9
2023-01-04T10:07:04.948Z,78.6
2023-01-04T10:08:00.462Z,78.6
2023-01-04T10:09:00.595Z,78.5
2023-01-04T10:10:00.752Z,78.4
2023-01-04T10:11:00.877Z,78.4
2023-01-04T10:12:01.013Z,78.2
2023-01-04T10:13:01.225Z,78.4
2023-01-04T10:14:00.314Z,78.6
2023-01-04T10:15:00.463Z,78
2023-01-04T10:16:00.649Z,78.2
2023-01-04T10:17:12.708Z,78.4
2023-01-04T10:19:36.872Z,77.9
2023-01-04T10:21:23.580Z,78.2
2023-01-04T10:22:00.509Z,77.9
2023-01-04T10:23:00.645Z,78.3
2023-01-04T10:24:00.799Z,77.9
2023-01-04T10:25:00.927Z,77.8
2023-01-04T10:26:01.091Z,77.6
2023-01-04T10:27:01.247Z,77.9
2023-01-04T10:28:00.395Z,78.2
2023-01-04T10:29:00.546Z,77.8
2023-01-04T10:30:00.686Z,77.5
2023-01-04T10:31:00.867Z,77.5
2023-01-04T10:32:01.002Z,77.9
2023-01-04T10:33:01.160Z,77.7
2023-01-04T10:34:00.278Z,77.7
2023-01-04T10:35:00.426Z,77.5
2023-01-04T10:36:00.589Z,77.7
2023-01-04T10:37:00.738Z,78.2
2023-01-04T10:38:00.873Z,78.3
2023-01-04T10:39:01.008Z,78
2023-01-04T10:40:01.170Z,78.5
2023-01-04T10:41:00.332Z,78.1
2023-01-04T10:42:00.505Z,78.2
2023-01-04T10:43:00.620Z,78.5
2023-01-04T10:44:11.887Z,78.7
2023-01-04T10:45:05.060Z,78.1
2023-01-04T10:46:01.112Z,78.6
2023-01-04T10:47:01.263Z,78.3
2023-01-04T10:48:00.360Z,78.8
2023-01-04T10:49:00.508Z,78.2
2023-01-04T10:50:00.679Z,78.4
2023-01-04T10:51:08.996Z,78.2
2023-01-04T10:52:00.991Z,78.9
2023-01-04T10:53:01.132Z,78.5
2023-01-04T10:54:01.296Z,78.2
2023-01-04T10:55:00.453Z,78.5
2023-01-04T10:56:26.033Z,78.3
2023-01-04T10:57:05.129Z,78.2
2023-01-04T10:58:00.876Z,78.4
2023-01-04T10:59:01.023Z,78.3
2023-01-04T11:00:01.158Z,78.2
2023-01-04T11:01:00.336Z,78.2
2023-01-04T11:02:00.625Z,78.4
2023-01-04T11:03:06.501Z,78.6
2023-01-04T11:04:00.776Z,78.7
2023-01-04T11:05:00.937Z,78.4
2023-01-04T11:06:01.060Z,78.1
2023-01-04T11:07:01.212Z,78.2
2023-01-04T11:08:00.363Z,78.3
2023-01-04T11:09:00.502Z,78.4
2023-01-04T11:10:00.675Z,78.6
2023-01-04T11:11:00.834Z,78.7
2023-01-04T11:12:00.983Z,78.6
2023-01-04T11:13:01.112Z,78.5
2023-01-04T11:14:01.260Z,79
2023-01-04T11:15:00.402Z,78.9
2023-01-04T11:16:00.592Z,78.5
2023-01-04T11:17:00.765Z,78.5
2023-01-04T11:18:00.849Z,78.2
2023-01-04T11:19:01.020Z,78.3
2023-01-04T11:20:01.179Z,78.2
2023-01-04T11:21:00.290Z,78.2
2023-01-04T11:22:00.444Z,78.3
2023-01-04T11:23:00.617Z,78
2023-01-04T11:24:22.102Z,78.3
2023-01-04T11:25:33.623Z,78.5
2023-01-04T11:26:01.038Z,78.6
2023-01-04T11:27:01.194Z,78.2
2023-01-04T11:28:00.365Z,78.2
2023-01-04T11:29:00.476Z,78.1
2023-01-04T11:30:00.621Z,78
2023-01-04T11:31:00.767Z,78.3
2023-01-04T11:32:00.990Z,78.4
2023-01-04T11:33:01.100Z,78.6
2023-01-04T11:34:01.222Z,78.2
2023-01-04T11:35:00.350Z,78.2
2023-01-04T11:36:00.489Z,78.2
2023-01-04T11:37:00.648Z,78.3
2023-01-04T11:38:00.832Z,78.1
2023-01-04T11:39:00.948Z,78.2
2023-01-04T11:40:01.119Z,77.9
2023-01-04T11:41:01.262Z,78.2
2023-01-04T11:42:03.343Z,78.3
2023-01-04T11:43:00.560Z,78.3
2023-01-04T11:44:00.722Z,78.5
2023-01-04T11:45:00.866Z,78.6
2023-01-04T11:46:01.057Z,78.4
2023-01-04T11:47:01.141Z,78.6
2023-01-04T11:48:00.292Z,78.3
2023-01-04T11:49:00.454Z,78.4
2023-01-04T11:50:00.623Z,78.7
2023-01-04T11:51:00.750Z,78.4
2023-01-04T11:52:00.887Z,78.4
2023-01-04T11:53:01.043Z,78.7
2023-01-04T11:54:01.205Z,78.9
2023-01-04T11:55:00.367Z,78.6
2023-01-04T11:56:00.508Z,78.6
2023-01-04T11:57:00.620Z,78.8
2023-01-04T11:58:00.773Z,78.6
2023-01-04T11:59:00.928Z,79
2023-01-04T12:00:01.095Z,79
2023-01-04T12:01:01.232Z,78.9
2023-01-04T12:02:00.493Z,79
2023-01-04T12:03:01.905Z,78.9
2023-01-04T12:04:00.669Z,78.8
2023-01-04T12:05:00.819Z,79.2
2023-01-04T12:06:00.961Z,79.3
2023-01-04T12:07:01.103Z,79.6
2023-01-04T12:08:01.300Z,79.3
2023-01-04T12:09:00.448Z,79.8
2023-01-04T12:10:00.547Z,80
2023-01-04T12:11:00.705Z,79.4
2023-01-04T12:12:00.837Z,79.7
2023-01-04T12:13:01.003Z,79.4
2023-01-04T12:14:01.155Z,79.6
2023-01-04T12:15:00.287Z,79.4
2023-01-04T12:16:00.417Z,79.7
2023-01-04T12:17:00.584Z,79.6
2023-01-04T12:18:00.750Z,79.6
2023-01-04T12:19:00.879Z,79.6
2023-01-04T12:20:01.026Z,79.7
2023-01-04T12:21:01.161Z,79.8
2023-01-04T12:22:00.316Z,79.6
2023-01-04T12:23:00.497Z,79.5
2023-01-04T12:24:00.626Z,79.5
2023-01-04T12:25:01.141Z,79.3
2023-01-04T12:26:00.932Z,79.3
2023-01-04T12:27:01.059Z,79.7
2023-01-04T12:28:01.232Z,79.4
2023-01-04T12:29:00.379Z,79.4
2023-01-04T12:30:00.521Z,79.5
2023-01-04T12:31:00.655Z,79.6
2023-01-04T12:32:00.884Z,79.6
2023-01-04T12:33:00.973Z,79.3
2023-01-04T12:34:01.100Z,79.7
2023-01-04T12:35:01.258Z,79.5
2023-01-04T12:36:00.403Z,79.9
2023-01-04T12:37:05.269Z,79.5
2023-01-04T12:38:00.713Z,79.4
2023-01-04T12:39:00.863Z,79.4
2023-01-04T12:40:01.024Z,79.4
2023-01-04T12:41:01.154Z,79.4
2023-01-04T12:42:00.523Z,79.5
2023-01-04T12:43:00.441Z,79.4
2023-01-04T12:44:00.589Z,79.7
2023-01-04T12:45:00.764Z,79.6
2023-01-04T12:46:00.894Z,79.7
2023-01-04T12:47:01.045Z,79.8
2023-01-04T12:48:01.182Z,79.9
2023-01-04T12:49:00.333Z,80
2023-01-04T12:50:00.489Z,79.9
2023-01-04T12:51:21.762Z,79.9
2023-01-04T12:52:20.733Z,80
2023-01-04T12:53:30.034Z,80.1
2023-01-04T12:54:01.132Z,80.2
2023-01-04T12:55:01.271Z,80.1
2023-01-04T12:56:00.401Z,80.2
2023-01-04T12:57:00.550Z,80.3
2023-01-04T12:58:00.694Z,80.3
2023-01-04T12:59:24.601Z,80.5
2023-01-04T13:00:01.003Z,80.5
2023-01-04T13:01:01.191Z,80.5
2023-01-04T13:02:00.391Z,80.5
2023-01-04T13:03:00.737Z,80.5
2023-01-04T13:04:05.135Z,80.4
2023-01-04T13:05:53.299Z,80.5
2023-01-04T13:06:00.867Z,80.6
2023-01-04T13:07:01.020Z,80.5
2023-01-04T13:08:01.209Z,80.6
2023-01-04T13:09:00.345Z,80.1
2023-01-04T13:10:00.471Z,80.2
2023-01-04T13:11:00.614Z,80.2
2023-01-04T13:12:00.767Z,80.2
2023-01-04T13:13:00.914Z,80.7
2023-01-04T13:14:01.089Z,80.4
2023-01-04T13:15:01.207Z,80.5
2023-01-04T13:16:00.379Z,80.6
2023-01-04T13:17:00.628Z,80.3
2023-01-04T13:18:00.650Z,80.7
2023-01-04T13:19:00.810Z,80.9
2023-01-04T13:20:00.955Z,81
2023-01-04T13:21:01.089Z,80.8
2023-01-04T13:22:01.255Z,80.6
2023-01-04T13:23:00.385Z,80.8
2023-01-04T13:24:00.549Z,80.7
2023-01-04T13:25:00.735Z,80.6